This is the latest recevied weather packets stored in our database for station/object SV9TNF-51. If no packets are shown the sender has not sent any weather packets the latest 10 day(s).
| Time | Temp. | Humidity | Pressure | Rain* | Wind** | Luminosity | Snow |
|---|---|---|---|---|---|---|---|
| 1787869305 | 27.78° C | 59% | 1013.6 hPa | 0 mm | 0.45 m/s, 129° | - | - |
| 1787869004 | 27.78° C | 59% | 1013.6 hPa | 0 mm | 1.79 m/s, 123° | - | - |
| 1787868705 | 27.78° C | 60% | 1013.6 hPa | 0 mm | 0 m/s | - | - |
| 1787868404 | 27.78° C | 59% | 1013.6 hPa | 0 mm | 0 m/s | - | - |
| 1787868104 | 27.78° C | 59% | 1013.6 hPa | 0 mm | 0.89 m/s, 94° | - | - |
| 1787867804 | 27.78° C | 58% | 1013.2 hPa | 0 mm | 0 m/s | - | - |
| 1787867504 | 27.78° C | 57% | 1013.2 hPa | 0 mm | 3.13 m/s, 125° | - | - |
| 1787867203 | 27.78° C | 59% | 1013.2 hPa | 0 mm | 3.58 m/s, 110° | - | - |
| 1787866904 | 27.78° C | 58% | 1013.2 hPa | 0 mm | 1.79 m/s, 92° | - | - |
| 1787866604 | 27.78° C | 61% | 1013.2 hPa | 0 mm | 2.24 m/s, 90° | - | - |
| 1787866303 | 27.78° C | 63% | 1013.6 hPa | 0 mm | 1.79 m/s, 148° | - | - |
| 1787866003 | 27.78° C | 64% | 1013.6 hPa | 0 mm | 5.81 m/s, 333° | - | - |
| 1787865705 | 27.78° C | 63% | 1013.2 hPa | 0 mm | 1.79 m/s, 8° | - | - |
| 1787865404 | 27.78° C | 61% | 1013.2 hPa | 0 mm | 4.02 m/s, 349° | - | - |
| 1787865103 | 27.78° C | 62% | 1013.2 hPa | 0 mm | 0 m/s | - | - |
| 1787864803 | 27.78° C | 63% | 1013.2 hPa | 0 mm | 0 m/s | - | - |
| 1787864503 | 27.78° C | 63% | 1013.2 hPa | 0 mm | 4.02 m/s, 338° | - | - |
| 1787864203 | 27.78° C | 63% | 1013.2 hPa | 0 mm | 0 m/s | - | - |
| 1787863903 | 28.33° C | 62% | 1013.2 hPa | 0 mm | 4.02 m/s, 331° | - | - |
| 1787863603 | 28.33° C | 56% | 1013.2 hPa | 0 mm | 3.58 m/s, 326° | - | - |
| 1787863302 | 28.33° C | 53% | 1013.2 hPa | 0 mm | 2.24 m/s, 100° | - | - |
| 1787863003 | 28.33° C | 51% | 1013.2 hPa | 0 mm | 3.13 m/s, 74° | - | - |
| 1787862702 | 28.33° C | 57% | 1013.2 hPa | 0 mm | 3.58 m/s, 82° | - | - |
| 1787862402 | 28.33° C | 60% | 1013.2 hPa | 0 mm | 3.13 m/s, 80° | - | - |
| 1787862102 | 28.33° C | 58% | 1013.2 hPa | 0 mm | 0 m/s | - | - |
* Rain latest hour (hover to see other rain measurements)
** Current wind speed in m/s (hover to see current wind gust speed)